createdAt,value
2019-05-06T00:01:26.416Z,99718.08
2019-05-06T00:05:47.229Z,99721.05
2019-05-06T00:10:21.684Z,99713.58
2019-05-06T00:14:43.666Z,99707.34
2019-05-06T00:19:04.812Z,99711.87
2019-05-06T00:23:26.096Z,99716.33
2019-05-06T00:27:46.829Z,99713.99
2019-05-06T00:32:07.398Z,99717.48
2019-05-06T00:36:28.461Z,99707.53
2019-05-06T00:40:48.796Z,99713.23
2019-05-06T00:45:09.086Z,99711.34
2019-05-06T00:49:29.765Z,99713.48
2019-05-06T00:53:50.681Z,99720.79
2019-05-06T00:58:10.844Z,99718.06
2019-05-06T01:02:31.416Z,99721.20
2019-05-06T01:06:51.793Z,99716.97
2019-05-06T01:11:14.277Z,99707.92
2019-05-06T01:15:34.587Z,99712.52
2019-05-06T01:19:54.683Z,99710.92
2019-05-06T01:24:15.407Z,99714.25
2019-05-06T01:28:35.880Z,99716.01
2019-05-06T01:32:56.145Z,99721.41
2019-05-06T01:37:16.523Z,99720.60
2019-05-06T01:41:37.384Z,99722.72
2019-05-06T01:45:57.944Z,99718.99
2019-05-06T01:50:18.721Z,99722.98
2019-05-06T01:54:38.999Z,99716.77
2019-05-06T01:58:59.577Z,99719.80
2019-05-06T02:03:20.308Z,99726.80
2019-05-06T02:07:40.451Z,99721.20
2019-05-06T02:12:00.751Z,99727.91
2019-05-06T02:16:21.311Z,99725.03
2019-05-06T02:20:41.740Z,99726.59
2019-05-06T02:25:04.301Z,99718.78
2019-05-06T02:29:24.780Z,99726.55
2019-05-06T02:33:45.051Z,99722.72
2019-05-06T02:38:05.504Z,99732.91
2019-05-06T02:42:25.963Z,99730.49
2019-05-06T02:46:46.519Z,99726.50
2019-05-06T02:51:06.929Z,99727.67
2019-05-06T02:55:27.774Z,99732.06
2019-05-06T02:59:47.979Z,99726.80
2019-05-06T03:04:08.321Z,99728.91
2019-05-06T03:08:28.986Z,99723.46
2019-05-06T03:12:50.042Z,99727.73
2019-05-06T03:17:10.303Z,99724.29
2019-05-06T03:21:36.670Z,99717.08
2019-05-06T03:25:53.573Z,99712.26
2019-05-06T03:30:16.662Z,99714.98
2019-05-06T03:34:57.975Z,99720.27
2019-05-06T03:38:59.578Z,99714.78
2019-05-06T03:43:23.107Z,99711.87
2019-05-06T03:47:43.616Z,99711.34
2019-05-06T03:52:04.082Z,99709.81
2019-05-06T03:56:25.361Z,99709.66
2019-05-06T04:00:46.474Z,99703.56
2019-05-06T04:05:07.362Z,99713.19
2019-05-06T04:09:27.633Z,99714.13
2019-05-06T04:13:47.956Z,99736.63
2019-05-06T04:18:08.696Z,99725.55
2019-05-06T04:22:29.103Z,99735.35
2019-05-06T04:26:53.378Z,99728.05
2019-05-06T04:31:13.620Z,99728.45
2019-05-06T04:35:34.824Z,99732.23
2019-05-06T04:39:55.178Z,99734.53
2019-05-06T04:44:17.185Z,99736.67
2019-05-06T04:48:37.682Z,99738.19
2019-05-06T04:52:58.966Z,99741.23
2019-05-06T04:57:19.719Z,99737.14
2019-05-06T05:01:40.190Z,99742.90
2019-05-06T05:06:03.020Z,99739.42
2019-05-06T05:10:23.670Z,99736.97
2019-05-06T05:14:44.604Z,99745.12
2019-05-06T05:19:04.968Z,99742.77
2019-05-06T05:23:25.514Z,99744.72
2019-05-06T05:27:46.617Z,99743.23
2019-05-06T05:32:06.835Z,99749.19
2019-05-06T05:36:27.626Z,99752.67
2019-05-06T05:40:48.667Z,99755.78
2019-05-06T05:45:09.041Z,99760.55
2019-05-06T05:49:32.336Z,99760.23
2019-05-06T05:53:53.109Z,99767.34
2019-05-06T05:58:14.306Z,99767.27
2019-05-06T06:02:35.059Z,99763.23
2019-05-06T06:06:56.209Z,99762.05
2019-05-06T06:11:17.094Z,99760.69
2019-05-06T06:15:38.106Z,99760.56
2019-05-06T06:19:59.192Z,99761.29
2019-05-06T06:24:22.535Z,99762.55
2019-05-06T06:28:42.927Z,99766.27
2019-05-06T06:33:03.452Z,99765.52
2019-05-06T06:37:25.448Z,99756.23
2019-05-06T06:41:47.028Z,99751.47
2019-05-06T06:46:09.400Z,99769.70
2019-05-06T06:50:30.140Z,99769.20
2019-05-06T06:54:52.737Z,99774.36
2019-05-06T06:59:15.146Z,99769.38
2019-05-06T07:03:37.069Z,99770.98
2019-05-06T07:07:57.660Z,99769.62
2019-05-06T07:12:18.515Z,99765.31
2019-05-06T07:16:42.871Z,99768.84
2019-05-06T07:21:05.403Z,99769.52
2019-05-06T07:25:26.391Z,99778.08
2019-05-06T07:29:48.066Z,99774.86
2019-05-06T07:34:12.009Z,99778.08
2019-05-06T07:38:33.340Z,99772.83
2019-05-06T07:42:53.802Z,99773.95
2019-05-06T07:47:15.912Z,99777.33
2019-05-06T07:51:36.338Z,99780.87
2019-05-06T07:55:57.601Z,99775.50
2019-05-06T08:00:19.788Z,99779.81
2019-05-06T08:04:42.093Z,99779.80
2019-05-06T08:09:08.256Z,99782.83
2019-05-06T08:13:28.899Z,99782.83
2019-05-06T08:17:52.360Z,99773.14
2019-05-06T08:22:13.632Z,99778.77
2019-05-06T08:26:34.880Z,99778.72
2019-05-06T08:30:55.951Z,99775.78
2019-05-06T08:35:16.868Z,99779.39
2019-05-06T08:39:38.160Z,99776.11
2019-05-06T08:43:59.068Z,99765.50
2019-05-06T08:48:19.545Z,99765.02
2019-05-06T08:52:42.457Z,99767.03
2019-05-06T08:57:02.728Z,99763.27
2019-05-06T09:01:23.512Z,99762.36
2019-05-06T09:05:44.190Z,99757.87
2019-05-06T09:10:07.446Z,99757.87
2019-05-06T09:14:28.332Z,99759.20
2019-05-06T09:18:48.533Z,99765.44
2019-05-06T09:23:12.284Z,99749.51
2019-05-06T09:27:32.804Z,99754.63
2019-05-06T09:31:53.594Z,99753.98
2019-05-06T09:36:14.469Z,99756.72
2019-05-06T09:40:35.547Z,99758.02
2019-05-06T09:44:55.997Z,99745.07
2019-05-06T09:49:16.608Z,99745.07
2019-05-06T09:53:38.246Z,99759.89
2019-05-06T09:57:59.829Z,99739.23
2019-05-06T10:02:23.078Z,99739.23
2019-05-06T10:06:55.782Z,99735.84
2019-05-06T10:11:06.595Z,99748.94
2019-05-06T10:15:27.282Z,99746.78
2019-05-06T10:19:47.524Z,99746.78
2019-05-06T10:24:08.320Z,99754.10
2019-05-06T10:28:29.354Z,99752.51
2019-05-06T10:32:50.164Z,99755.36
2019-05-06T10:37:19.726Z,99745.01
2019-05-06T10:41:44.409Z,99745.12
2019-05-06T10:46:06.119Z,99739.85
2019-05-06T10:50:26.593Z,99733.20
2019-05-06T10:54:47.136Z,99733.20
2019-05-06T10:59:08.211Z,99722.73
2019-05-06T11:03:28.952Z,99719.52
2019-05-06T11:07:52.165Z,99719.52
2019-05-06T11:12:12.565Z,99715.20
2019-05-06T11:16:34.141Z,99711.95
2019-05-06T11:20:56.319Z,99709.55
2019-05-06T11:25:17.198Z,99711.34
2019-05-06T11:29:38.207Z,99709.44
2019-05-06T11:33:59.446Z,99702.50
2019-05-06T11:38:20.016Z,99700.79
2019-05-06T11:42:40.198Z,99700.79
2019-05-06T11:47:03.231Z,99701.98
2019-05-06T11:51:23.356Z,99703.66
2019-05-06T11:55:43.793Z,99702.13
2019-05-06T12:00:05.063Z,99701.41
2019-05-06T12:04:25.483Z,99700.14
2019-05-06T12:08:46.318Z,99696.98
2019-05-06T12:13:07.124Z,99692.48
2019-05-06T12:17:28.644Z,99686.45
2019-05-06T12:21:49.784Z,99690.21
2019-05-06T12:26:13.061Z,99697.12
2019-05-06T12:30:33.368Z,99700.86
2019-05-06T12:34:53.668Z,99693.71
2019-05-06T12:39:16.039Z,99700.08
2019-05-06T12:43:36.344Z,99701.86
2019-05-06T12:47:56.868Z,99713.16
2019-05-06T12:52:17.423Z,99709.14
2019-05-06T12:56:38.589Z,99697.54
2019-05-06T13:00:58.645Z,99707.02
2019-05-06T13:05:19.025Z,99697.05
2019-05-06T13:09:42.491Z,99708.34
2019-05-06T13:14:04.207Z,99703.00
2019-05-06T13:18:25.278Z,99701.12
2019-05-06T13:22:46.352Z,99694.09
2019-05-06T13:27:08.339Z,99691.38
2019-05-06T13:31:28.668Z,99691.36
2019-05-06T13:35:49.876Z,99687.18
2019-05-06T13:40:10.823Z,99690.20
2019-05-06T13:44:32.249Z,99687.46
2019-05-06T13:48:57.307Z,99682.41
2019-05-06T13:53:16.379Z,99680.39
2019-05-06T13:57:39.357Z,99677.98
2019-05-06T14:02:07.201Z,99678.95
2019-05-06T14:06:28.436Z,99664.16
2019-05-06T14:10:59.023Z,99666.91
2019-05-06T14:15:12.504Z,99662.01
2019-05-06T14:19:34.287Z,99655.31
2019-05-06T14:23:55.023Z,99651.22
2019-05-06T14:28:16.286Z,99643.09
2019-05-06T14:32:37.270Z,99629.23
2019-05-06T14:36:58.643Z,99636.05
2019-05-06T14:41:19.025Z,99636.27
2019-05-06T14:45:42.224Z,99638.03
2019-05-06T14:50:04.013Z,99639.27
2019-05-06T14:54:25.267Z,99639.28
2019-05-06T14:58:45.507Z,99622.47
2019-05-06T15:03:06.540Z,99624.80
2019-05-06T15:07:26.728Z,99619.71
2019-05-06T15:11:48.283Z,99618.45
2019-05-06T15:16:09.346Z,99607.01
2019-05-06T15:20:30.486Z,99610.44
2019-05-06T15:24:53.538Z,99603.98
2019-05-06T15:29:18.211Z,99603.23
2019-05-06T15:33:40.235Z,99604.84
2019-05-06T15:38:02.256Z,99599.08
2019-05-06T15:42:23.429Z,99612.55
2019-05-06T15:46:45.397Z,99621.84
2019-05-06T15:51:05.559Z,99612.20
2019-05-06T15:55:28.431Z,99620.87
2019-05-06T15:59:48.588Z,99611.34
2019-05-06T16:04:08.971Z,99615.67
2019-05-06T16:08:29.554Z,99618.48
2019-05-06T16:12:52.974Z,99629.65
2019-05-06T16:17:15.217Z,99646.41
2019-05-06T16:21:35.941Z,99650.09
2019-05-06T16:25:56.370Z,99646.70
2019-05-06T16:30:17.813Z,99656.42
2019-05-06T16:34:38.536Z,99646.81
2019-05-06T16:38:59.496Z,99641.52
2019-05-06T16:43:22.143Z,99640.76
2019-05-06T16:47:44.814Z,99642.17
2019-05-06T16:52:05.572Z,99640.88
2019-05-06T16:56:27.213Z,99646.58
2019-05-06T17:00:48.178Z,99635.85
2019-05-06T17:05:08.941Z,99643.98
2019-05-06T17:09:29.710Z,99644.94
2019-05-06T17:13:51.874Z,99654.36
2019-05-06T17:18:12.416Z,99654.05
2019-05-06T17:22:33.132Z,99657.20
2019-05-06T17:26:56.264Z,99655.50
2019-05-06T17:31:16.291Z,99647.75
2019-05-06T17:35:37.128Z,99647.75
2019-05-06T17:40:08.035Z,99645.48
2019-05-06T17:44:22.798Z,99641.75
2019-05-06T17:48:43.607Z,99648.09
2019-05-06T17:53:04.355Z,99652.44
2019-05-06T17:57:25.269Z,99650.78
2019-05-06T18:01:46.429Z,99646.19
2019-05-06T18:06:13.674Z,99644.20
2019-05-06T18:10:29.963Z,99635.36
2019-05-06T18:14:53.189Z,99636.02
2019-05-06T18:19:13.439Z,99630.92
2019-05-06T18:23:34.467Z,99634.60
2019-05-06T18:27:55.575Z,99635.51
2019-05-06T18:32:16.139Z,99634.84
2019-05-06T18:36:37.145Z,99621.05
2019-05-06T18:40:58.129Z,99621.05
2019-05-06T18:45:18.663Z,99628.40
2019-05-06T18:49:38.849Z,99628.40
2019-05-06T18:54:00.055Z,99619.42
2019-05-06T18:58:22.349Z,99616.78
2019-05-06T19:02:42.986Z,99623.89
2019-05-06T19:07:10.700Z,99618.89
2019-05-06T19:11:26.035Z,99629.28
2019-05-06T19:15:46.821Z,99630.78
2019-05-06T19:20:07.616Z,99640.73
2019-05-06T19:24:27.917Z,99637.66
2019-05-06T19:28:48.828Z,99648.30
2019-05-06T19:33:12.385Z,99655.74
2019-05-06T19:37:33.376Z,99652.31
2019-05-06T19:41:54.006Z,99662.05
2019-05-06T19:46:15.013Z,99665.55
2019-05-06T19:50:36.884Z,99654.60
2019-05-06T19:54:57.113Z,99655.99
2019-05-06T19:59:17.515Z,99655.09
2019-05-06T20:03:39.202Z,99655.09
2019-05-06T20:07:59.630Z,99656.36
2019-05-06T20:12:20.568Z,99646.55
2019-05-06T20:16:41.993Z,99655.43
2019-05-06T20:21:02.849Z,99655.80
2019-05-06T20:25:23.485Z,99660.08
2019-05-06T20:29:44.075Z,99663.30
2019-05-06T20:34:05.934Z,99659.66
2019-05-06T20:38:26.798Z,99652.45
2019-05-06T20:42:47.697Z,99655.56
2019-05-06T20:47:08.334Z,99659.20
2019-05-06T20:51:29.084Z,99654.10
2019-05-06T20:55:53.046Z,99653.41
2019-05-06T21:00:14.239Z,99658.33
2019-05-06T21:04:34.658Z,99655.58
2019-05-06T21:08:55.170Z,99655.84
2019-05-06T21:13:31.411Z,99661.18
2019-05-06T21:17:46.054Z,99655.59
2019-05-06T21:22:07.909Z,99660.39
2019-05-06T21:26:28.661Z,99655.86
2019-05-06T21:30:49.466Z,99652.42
2019-05-06T21:35:12.555Z,99651.77
2019-05-06T21:39:34.049Z,99645.72
2019-05-06T21:43:54.306Z,99651.41
2019-05-06T21:48:14.827Z,99648.11
2019-05-06T21:52:39.571Z,99641.16
2019-05-06T21:56:58.632Z,99643.44
2019-05-06T22:01:22.042Z,99640.13
2019-05-06T22:05:43.144Z,99641.88
2019-05-06T22:10:04.266Z,99651.09
2019-05-06T22:14:24.973Z,99643.30
2019-05-06T22:18:45.678Z,99636.35
2019-05-06T22:23:06.837Z,99638.52
2019-05-06T22:27:28.140Z,99631.12
2019-05-06T22:31:48.775Z,99628.27
2019-05-06T22:36:10.077Z,99627.82
2019-05-06T22:40:32.733Z,99627.06
2019-05-06T22:44:53.681Z,99623.70
2019-05-06T22:49:14.678Z,99628.52
2019-05-06T22:53:35.164Z,99625.67
2019-05-06T22:57:55.940Z,99622.68
2019-05-06T23:02:16.607Z,99621.67
2019-05-06T23:06:37.062Z,99614.72
2019-05-06T23:10:58.163Z,99620.42
2019-05-06T23:15:18.603Z,99626.45
2019-05-06T23:19:39.827Z,99618.94
2019-05-06T23:24:02.158Z,99623.48
2019-05-06T23:28:22.762Z,99619.72
2019-05-06T23:32:43.422Z,99623.73
2019-05-06T23:37:22.986Z,99620.08
2019-05-06T23:42:22.700Z,99624.52
2019-05-06T23:47:19.425Z,99629.41
2019-05-06T23:52:16.753Z,99614.83
2019-05-06T23:56:39.305Z,99611.73
